sensor_id;sensor_type;location;lat;lon;timestamp;P1;durP1;ratioP1;P2;durP2;ratioP2
57023;SDS011;42916;54.346;18.562;2023-07-29T00:01:33;11.70;;;8.50;;
57023;SDS011;42916;54.346;18.562;2023-07-29T00:04:00;11.40;;;8.40;;
57023;SDS011;42916;54.346;18.562;2023-07-29T00:06:26;12.20;;;9.30;;
57023;SDS011;42916;54.346;18.562;2023-07-29T00:08:53;11.60;;;9.50;;
57023;SDS011;42916;54.346;18.562;2023-07-29T00:11:19;12.10;;;8.60;;
57023;SDS011;42916;54.346;18.562;2023-07-29T00:13:45;14.60;;;9.50;;
57023;SDS011;42916;54.346;18.562;2023-07-29T00:16:12;12.20;;;9.30;;
57023;SDS011;42916;54.346;18.562;2023-07-29T00:18:41;11.70;;;9.20;;
57023;SDS011;42916;54.346;18.562;2023-07-29T00:21:07;14.50;;;9.40;;
57023;SDS011;42916;54.346;18.562;2023-07-29T00:23:33;12.10;;;9.60;;
57023;SDS011;42916;54.346;18.562;2023-07-29T00:25:59;10.80;;;8.90;;
57023;SDS011;42916;54.346;18.562;2023-07-29T00:28:25;14.10;;;9.80;;
57023;SDS011;42916;54.346;18.562;2023-07-29T00:30:51;12.00;;;9.10;;
57023;SDS011;42916;54.346;18.562;2023-07-29T00:33:17;12.50;;;9.50;;
57023;SDS011;42916;54.346;18.562;2023-07-29T00:35:43;10.90;;;9.00;;
57023;SDS011;42916;54.346;18.562;2023-07-29T00:38:09;9.50;;;8.40;;
57023;SDS011;42916;54.346;18.562;2023-07-29T00:40:35;12.40;;;8.90;;
57023;SDS011;42916;54.346;18.562;2023-07-29T00:43:02;12.50;;;9.20;;
57023;SDS011;42916;54.346;18.562;2023-07-29T00:45:29;12.10;;;9.60;;
57023;SDS011;42916;54.346;18.562;2023-07-29T00:47:57;11.30;;;9.30;;
57023;SDS011;42916;54.346;18.562;2023-07-29T00:50:24;11.40;;;8.50;;
57023;SDS011;42916;54.346;18.562;2023-07-29T00:52:50;13.40;;;9.60;;
57023;SDS011;42916;54.346;18.562;2023-07-29T00:55:16;11.40;;;9.40;;
57023;SDS011;42916;54.346;18.562;2023-07-29T00:57:42;13.80;;;9.50;;
57023;SDS011;42916;54.346;18.562;2023-07-29T01:00:14;11.80;;;9.10;;
57023;SDS011;42916;54.346;18.562;2023-07-29T01:02:44;11.20;;;9.30;;
57023;SDS011;42916;54.346;18.562;2023-07-29T01:05:13;14.00;;;9.90;;
57023;SDS011;42916;54.346;18.562;2023-07-29T01:10:34;12.90;;;9.40;;
57023;SDS011;42916;54.346;18.562;2023-07-29T01:16:35;13.20;;;10.40;;
57023;SDS011;42916;54.346;18.562;2023-07-29T01:18:45;13.20;;;9.90;;
57023;SDS011;42916;54.346;18.562;2023-07-29T01:21:14;13.30;;;9.30;;
57023;SDS011;42916;54.346;18.562;2023-07-29T01:23:44;11.80;;;9.60;;
57023;SDS011;42916;54.346;18.562;2023-07-29T01:26:10;11.60;;;9.00;;
57023;SDS011;42916;54.346;18.562;2023-07-29T01:28:36;13.20;;;9.90;;
57023;SDS011;42916;54.346;18.562;2023-07-29T01:31:07;10.90;;;9.00;;
57023;SDS011;42916;54.346;18.562;2023-07-29T01:36:49;12.40;;;9.70;;
57023;SDS011;42916;54.346;18.562;2023-07-29T01:39:17;13.60;;;10.00;;
57023;SDS011;42916;54.346;18.562;2023-07-29T01:41:48;11.00;;;8.80;;
57023;SDS011;42916;54.346;18.562;2023-07-29T01:44:15;16.00;;;10.40;;
57023;SDS011;42916;54.346;18.562;2023-07-29T01:46:43;13.40;;;10.40;;
57023;SDS011;42916;54.346;18.562;2023-07-29T01:49:10;14.60;;;10.00;;
57023;SDS011;42916;54.346;18.562;2023-07-29T01:51:36;12.90;;;9.00;;
57023;SDS011;42916;54.346;18.562;2023-07-29T01:54:02;11.70;;;9.30;;
57023;SDS011;42916;54.346;18.562;2023-07-29T01:56:28;12.70;;;10.30;;
57023;SDS011;42916;54.346;18.562;2023-07-29T01:58:58;11.90;;;9.80;;
57023;SDS011;42916;54.346;18.562;2023-07-29T02:01:24;14.00;;;9.90;;
57023;SDS011;42916;54.346;18.562;2023-07-29T02:03:50;13.00;;;10.20;;
57023;SDS011;42916;54.346;18.562;2023-07-29T02:06:21;13.60;;;10.00;;
57023;SDS011;42916;54.346;18.562;2023-07-29T02:08:47;15.50;;;11.30;;
57023;SDS011;42916;54.346;18.562;2023-07-29T02:11:14;14.70;;;10.70;;
57023;SDS011;42916;54.346;18.562;2023-07-29T02:13:40;13.30;;;10.50;;
57023;SDS011;42916;54.346;18.562;2023-07-29T02:16:06;13.80;;;10.00;;
57023;SDS011;42916;54.346;18.562;2023-07-29T02:18:32;10.70;;;9.10;;
57023;SDS011;42916;54.346;18.562;2023-07-29T02:20:58;13.60;;;10.70;;
57023;SDS011;42916;54.346;18.562;2023-07-29T02:23:24;12.80;;;10.90;;
57023;SDS011;42916;54.346;18.562;2023-07-29T02:25:50;13.60;;;10.80;;
57023;SDS011;42916;54.346;18.562;2023-07-29T02:28:16;14.40;;;9.70;;
57023;SDS011;42916;54.346;18.562;2023-07-29T02:30:42;11.80;;;10.20;;
57023;SDS011;42916;54.346;18.562;2023-07-29T02:33:10;12.30;;;10.30;;
57023;SDS011;42916;54.346;18.562;2023-07-29T02:35:36;12.10;;;9.80;;
57023;SDS011;42916;54.346;18.562;2023-07-29T02:38:03;13.60;;;10.50;;
57023;SDS011;42916;54.346;18.562;2023-07-29T02:40:29;15.60;;;11.50;;
57023;SDS011;42916;54.346;18.562;2023-07-29T02:42:55;14.00;;;10.40;;
57023;SDS011;42916;54.346;18.562;2023-07-29T02:45:21;11.40;;;9.30;;
57023;SDS011;42916;54.346;18.562;2023-07-29T02:47:47;13.70;;;10.70;;
57023;SDS011;42916;54.346;18.562;2023-07-29T02:50:13;14.90;;;10.40;;
57023;SDS011;42916;54.346;18.562;2023-07-29T02:52:39;12.00;;;9.80;;
57023;SDS011;42916;54.346;18.562;2023-07-29T02:55:05;11.80;;;9.50;;
57023;SDS011;42916;54.346;18.562;2023-07-29T02:57:32;13.30;;;10.80;;
57023;SDS011;42916;54.346;18.562;2023-07-29T02:59:58;12.60;;;10.50;;
57023;SDS011;42916;54.346;18.562;2023-07-29T03:02:24;13.50;;;10.20;;
57023;SDS011;42916;54.346;18.562;2023-07-29T03:04:50;13.70;;;10.10;;
57023;SDS011;42916;54.346;18.562;2023-07-29T03:07:16;12.10;;;9.20;;
57023;SDS011;42916;54.346;18.562;2023-07-29T03:09:42;13.80;;;9.70;;
57023;SDS011;42916;54.346;18.562;2023-07-29T03:12:08;13.80;;;10.00;;
57023;SDS011;42916;54.346;18.562;2023-07-29T03:14:34;12.10;;;8.50;;
57023;SDS011;42916;54.346;18.562;2023-07-29T03:17:03;14.30;;;10.00;;
57023;SDS011;42916;54.346;18.562;2023-07-29T03:19:33;12.10;;;9.30;;
57023;SDS011;42916;54.346;18.562;2023-07-29T03:21:59;14.00;;;9.90;;
57023;SDS011;42916;54.346;18.562;2023-07-29T03:24:25;13.80;;;10.10;;
57023;SDS011;42916;54.346;18.562;2023-07-29T03:26:51;13.00;;;9.00;;
57023;SDS011;42916;54.346;18.562;2023-07-29T03:29:17;11.30;;;8.50;;
57023;SDS011;42916;54.346;18.562;2023-07-29T03:31:43;10.90;;;8.30;;
57023;SDS011;42916;54.346;18.562;2023-07-29T03:34:09;12.70;;;8.80;;
57023;SDS011;42916;54.346;18.562;2023-07-29T03:36:37;14.20;;;10.20;;
57023;SDS011;42916;54.346;18.562;2023-07-29T03:39:03;12.60;;;9.50;;
57023;SDS011;42916;54.346;18.562;2023-07-29T03:41:29;13.80;;;9.50;;
57023;SDS011;42916;54.346;18.562;2023-07-29T03:43:55;13.30;;;10.00;;
57023;SDS011;42916;54.346;18.562;2023-07-29T03:46:21;12.10;;;9.00;;
57023;SDS011;42916;54.346;18.562;2023-07-29T03:48:48;10.80;;;8.80;;
57023;SDS011;42916;54.346;18.562;2023-07-29T03:51:14;10.20;;;8.50;;
57023;SDS011;42916;54.346;18.562;2023-07-29T03:53:40;11.80;;;9.30;;
57023;SDS011;42916;54.346;18.562;2023-07-29T03:56:07;11.20;;;8.70;;
57023;SDS011;42916;54.346;18.562;2023-07-29T03:58:34;12.10;;;9.10;;
57023;SDS011;42916;54.346;18.562;2023-07-29T04:01:00;13.00;;;9.30;;
57023;SDS011;42916;54.346;18.562;2023-07-29T04:03:26;10.20;;;8.30;;
57023;SDS011;42916;54.346;18.562;2023-07-29T04:05:52;13.20;;;9.70;;
57023;SDS011;42916;54.346;18.562;2023-07-29T04:08:19;12.40;;;9.00;;
57023;SDS011;42916;54.346;18.562;2023-07-29T04:10:45;9.80;;;7.40;;
57023;SDS011;42916;54.346;18.562;2023-07-29T04:13:11;10.10;;;8.50;;
57023;SDS011;42916;54.346;18.562;2023-07-29T04:15:37;12.20;;;9.30;;
57023;SDS011;42916;54.346;18.562;2023-07-29T04:18:03;10.20;;;8.00;;
57023;SDS011;42916;54.346;18.562;2023-07-29T04:20:30;9.80;;;7.90;;
57023;SDS011;42916;54.346;18.562;2023-07-29T04:22:56;10.70;;;8.50;;
57023;SDS011;42916;54.346;18.562;2023-07-29T04:25:22;9.90;;;8.30;;
57023;SDS011;42916;54.346;18.562;2023-07-29T04:27:48;9.90;;;8.40;;
57023;SDS011;42916;54.346;18.562;2023-07-29T04:30:14;10.00;;;8.40;;
57023;SDS011;42916;54.346;18.562;2023-07-29T04:32:40;9.30;;;8.00;;
57023;SDS011;42916;54.346;18.562;2023-07-29T04:35:08;9.50;;;7.50;;
57023;SDS011;42916;54.346;18.562;2023-07-29T04:37:36;9.80;;;8.00;;
57023;SDS011;42916;54.346;18.562;2023-07-29T04:40:02;8.10;;;7.10;;
57023;SDS011;42916;54.346;18.562;2023-07-29T04:42:28;8.20;;;7.30;;
57023;SDS011;42916;54.346;18.562;2023-07-29T04:44:54;8.90;;;7.70;;
57023;SDS011;42916;54.346;18.562;2023-07-29T04:47:20;10.30;;;8.30;;
57023;SDS011;42916;54.346;18.562;2023-07-29T04:49:46;8.80;;;7.60;;
57023;SDS011;42916;54.346;18.562;2023-07-29T04:52:12;7.60;;;6.70;;
57023;SDS011;42916;54.346;18.562;2023-07-29T04:54:38;8.00;;;7.20;;
57023;SDS011;42916;54.346;18.562;2023-07-29T04:57:04;10.10;;;8.00;;
57023;SDS011;42916;54.346;18.562;2023-07-29T04:59:31;9.30;;;6.70;;
57023;SDS011;42916;54.346;18.562;2023-07-29T05:01:57;8.20;;;7.00;;
57023;SDS011;42916;54.346;18.562;2023-07-29T05:04:23;9.50;;;7.70;;
57023;SDS011;42916;54.346;18.562;2023-07-29T05:06:49;9.60;;;7.30;;
57023;SDS011;42916;54.346;18.562;2023-07-29T05:09:16;7.00;;;6.10;;
57023;SDS011;42916;54.346;18.562;2023-07-29T05:11:44;8.70;;;7.00;;
57023;SDS011;42916;54.346;18.562;2023-07-29T05:14:15;8.10;;;6.80;;
57023;SDS011;42916;54.346;18.562;2023-07-29T05:16:43;8.40;;;6.50;;
57023;SDS011;42916;54.346;18.562;2023-07-29T05:19:09;8.40;;;6.50;;
57023;SDS011;42916;54.346;18.562;2023-07-29T05:21:37;8.80;;;5.70;;
57023;SDS011;42916;54.346;18.562;2023-07-29T05:24:04;8.50;;;6.50;;
57023;SDS011;42916;54.346;18.562;2023-07-29T05:26:30;9.40;;;7.00;;
57023;SDS011;42916;54.346;18.562;2023-07-29T05:28:56;9.60;;;6.70;;
57023;SDS011;42916;54.346;18.562;2023-07-29T05:31:23;8.20;;;6.00;;
57023;SDS011;42916;54.346;18.562;2023-07-29T05:33:49;8.40;;;6.40;;
57023;SDS011;42916;54.346;18.562;2023-07-29T05:36:15;6.40;;;5.80;;
57023;SDS011;42916;54.346;18.562;2023-07-29T05:38:41;6.70;;;5.20;;
57023;SDS011;42916;54.346;18.562;2023-07-29T05:41:07;7.70;;;5.80;;
57023;SDS011;42916;54.346;18.562;2023-07-29T05:43:33;7.80;;;5.90;;
57023;SDS011;42916;54.346;18.562;2023-07-29T05:46:00;6.30;;;5.40;;
57023;SDS011;42916;54.346;18.562;2023-07-29T05:48:26;7.70;;;5.50;;
57023;SDS011;42916;54.346;18.562;2023-07-29T05:50:52;7.20;;;6.00;;
57023;SDS011;42916;54.346;18.562;2023-07-29T05:53:19;8.00;;;5.80;;
57023;SDS011;42916;54.346;18.562;2023-07-29T05:55:45;8.10;;;5.50;;
57023;SDS011;42916;54.346;18.562;2023-07-29T05:58:11;5.30;;;4.80;;
57023;SDS011;42916;54.346;18.562;2023-07-29T06:00:37;5.90;;;5.10;;
57023;SDS011;42916;54.346;18.562;2023-07-29T06:03:03;5.70;;;5.00;;
57023;SDS011;42916;54.346;18.562;2023-07-29T06:05:29;5.60;;;4.90;;
57023;SDS011;42916;54.346;18.562;2023-07-29T06:07:55;5.80;;;5.00;;
57023;SDS011;42916;54.346;18.562;2023-07-29T06:10:21;5.20;;;4.60;;
57023;SDS011;42916;54.346;18.562;2023-07-29T06:12:47;6.30;;;5.20;;
57023;SDS011;42916;54.346;18.562;2023-07-29T06:15:14;6.00;;;5.00;;
57023;SDS011;42916;54.346;18.562;2023-07-29T06:17:41;4.70;;;4.20;;
57023;SDS011;42916;54.346;18.562;2023-07-29T06:20:07;5.60;;;4.30;;
57023;SDS011;42916;54.346;18.562;2023-07-29T06:22:33;6.00;;;4.30;;
57023;SDS011;42916;54.346;18.562;2023-07-29T06:24:59;5.60;;;4.70;;
57023;SDS011;42916;54.346;18.562;2023-07-29T06:27:25;5.30;;;4.20;;
57023;SDS011;42916;54.346;18.562;2023-07-29T06:29:51;5.80;;;4.60;;
57023;SDS011;42916;54.346;18.562;2023-07-29T06:32:17;5.50;;;4.30;;
57023;SDS011;42916;54.346;18.562;2023-07-29T06:34:43;5.00;;;4.30;;
57023;SDS011;42916;54.346;18.562;2023-07-29T06:37:09;6.80;;;4.30;;
57023;SDS011;42916;54.346;18.562;2023-07-29T06:39:35;5.30;;;3.80;;
57023;SDS011;42916;54.346;18.562;2023-07-29T06:42:01;5.10;;;3.70;;
57023;SDS011;42916;54.346;18.562;2023-07-29T06:44:27;5.80;;;3.90;;
57023;SDS011;42916;54.346;18.562;2023-07-29T06:46:53;5.20;;;3.60;;
57023;SDS011;42916;54.346;18.562;2023-07-29T06:49:19;4.90;;;3.40;;
57023;SDS011;42916;54.346;18.562;2023-07-29T06:51:45;4.00;;;3.10;;
57023;SDS011;42916;54.346;18.562;2023-07-29T06:54:11;4.30;;;2.90;;
57023;SDS011;42916;54.346;18.562;2023-07-29T06:56:37;5.20;;;3.40;;
57023;SDS011;42916;54.346;18.562;2023-07-29T06:59:03;5.80;;;3.30;;
57023;SDS011;42916;54.346;18.562;2023-07-29T07:01:29;4.80;;;3.40;;
57023;SDS011;42916;54.346;18.562;2023-07-29T07:03:55;4.60;;;2.90;;
57023;SDS011;42916;54.346;18.562;2023-07-29T07:06:24;5.10;;;2.90;;
57023;SDS011;42916;54.346;18.562;2023-07-29T07:08:50;5.20;;;2.90;;
57023;SDS011;42916;54.346;18.562;2023-07-29T07:11:18;3.90;;;2.60;;
57023;SDS011;42916;54.346;18.562;2023-07-29T07:13:44;3.60;;;3.10;;
57023;SDS011;42916;54.346;18.562;2023-07-29T07:16:10;5.30;;;3.30;;
57023;SDS011;42916;54.346;18.562;2023-07-29T07:18:37;4.70;;;3.20;;
57023;SDS011;42916;54.346;18.562;2023-07-29T07:21:03;3.60;;;2.40;;
57023;SDS011;42916;54.346;18.562;2023-07-29T07:23:29;4.00;;;2.80;;
57023;SDS011;42916;54.346;18.562;2023-07-29T07:25:55;4.10;;;2.90;;
57023;SDS011;42916;54.346;18.562;2023-07-29T07:28:21;4.90;;;3.00;;
57023;SDS011;42916;54.346;18.562;2023-07-29T07:30:47;5.30;;;3.40;;
57023;SDS011;42916;54.346;18.562;2023-07-29T07:33:13;3.20;;;2.90;;
57023;SDS011;42916;54.346;18.562;2023-07-29T07:35:39;4.80;;;3.00;;
57023;SDS011;42916;54.346;18.562;2023-07-29T07:38:05;4.90;;;3.10;;
57023;SDS011;42916;54.346;18.562;2023-07-29T07:40:33;4.10;;;3.00;;
57023;SDS011;42916;54.346;18.562;2023-07-29T07:42:59;3.80;;;2.80;;
57023;SDS011;42916;54.346;18.562;2023-07-29T07:45:25;5.20;;;3.10;;
57023;SDS011;42916;54.346;18.562;2023-07-29T07:47:52;3.60;;;2.60;;
57023;SDS011;42916;54.346;18.562;2023-07-29T07:50:21;4.10;;;2.80;;
57023;SDS011;42916;54.346;18.562;2023-07-29T07:52:47;4.70;;;2.80;;
57023;SDS011;42916;54.346;18.562;2023-07-29T07:55:13;5.00;;;3.30;;
57023;SDS011;42916;54.346;18.562;2023-07-29T07:57:39;4.00;;;2.80;;
57023;SDS011;42916;54.346;18.562;2023-07-29T08:00:05;3.50;;;3.20;;
57023;SDS011;42916;54.346;18.562;2023-07-29T08:02:38;4.00;;;3.00;;
57023;SDS011;42916;54.346;18.562;2023-07-29T08:05:04;4.00;;;2.80;;
57023;SDS011;42916;54.346;18.562;2023-07-29T08:07:31;4.10;;;2.70;;
57023;SDS011;42916;54.346;18.562;2023-07-29T08:09:57;4.70;;;2.80;;
57023;SDS011;42916;54.346;18.562;2023-07-29T08:12:23;3.60;;;2.60;;
57023;SDS011;42916;54.346;18.562;2023-07-29T08:14:49;5.30;;;2.60;;
57023;SDS011;42916;54.346;18.562;2023-07-29T08:17:15;5.10;;;2.90;;
57023;SDS011;42916;54.346;18.562;2023-07-29T08:19:41;3.20;;;2.50;;
57023;SDS011;42916;54.346;18.562;2023-07-29T08:22:07;3.70;;;2.50;;
57023;SDS011;42916;54.346;18.562;2023-07-29T08:24:33;3.00;;;2.40;;
57023;SDS011;42916;54.346;18.562;2023-07-29T08:26:59;2.90;;;2.50;;
57023;SDS011;42916;54.346;18.562;2023-07-29T08:29:25;2.60;;;2.40;;
57023;SDS011;42916;54.346;18.562;2023-07-29T08:31:51;3.00;;;2.10;;
57023;SDS011;42916;54.346;18.562;2023-07-29T08:34:17;6.30;;;2.60;;
57023;SDS011;42916;54.346;18.562;2023-07-29T08:36:43;2.50;;;2.20;;
57023;SDS011;42916;54.346;18.562;2023-07-29T08:39:09;2.30;;;2.10;;
57023;SDS011;42916;54.346;18.562;2023-07-29T08:41:37;3.50;;;2.30;;
57023;SDS011;42916;54.346;18.562;2023-07-29T08:44:12;4.50;;;2.10;;
57023;SDS011;42916;54.346;18.562;2023-07-29T08:46:49;3.50;;;2.50;;
57023;SDS011;42916;54.346;18.562;2023-07-29T08:49:18;2.50;;;2.00;;
57023;SDS011;42916;54.346;18.562;2023-07-29T08:51:49;3.80;;;2.20;;
57023;SDS011;42916;54.346;18.562;2023-07-29T08:54:16;2.90;;;2.40;;
57023;SDS011;42916;54.346;18.562;2023-07-29T08:56:43;3.60;;;2.10;;
57023;SDS011;42916;54.346;18.562;2023-07-29T08:59:10;2.30;;;1.90;;
57023;SDS011;42916;54.346;18.562;2023-07-29T09:01:38;4.40;;;2.20;;
57023;SDS011;42916;54.346;18.562;2023-07-29T09:04:04;4.70;;;2.30;;
57023;SDS011;42916;54.346;18.562;2023-07-29T09:06:31;3.30;;;2.00;;
57023;SDS011;42916;54.346;18.562;2023-07-29T09:08:58;3.90;;;2.00;;
57023;SDS011;42916;54.346;18.562;2023-07-29T09:11:25;4.20;;;2.20;;
57023;SDS011;42916;54.346;18.562;2023-07-29T09:13:52;5.30;;;2.40;;
57023;SDS011;42916;54.346;18.562;2023-07-29T09:16:19;3.40;;;2.40;;
57023;SDS011;42916;54.346;18.562;2023-07-29T09:18:50;3.40;;;2.40;;
57023;SDS011;42916;54.346;18.562;2023-07-29T09:21:17;2.60;;;2.20;;
57023;SDS011;42916;54.346;18.562;2023-07-29T09:23:49;4.20;;;2.30;;
57023;SDS011;42916;54.346;18.562;2023-07-29T09:26:23;3.80;;;2.20;;
57023;SDS011;42916;54.346;18.562;2023-07-29T09:28:57;3.10;;;2.10;;
57023;SDS011;42916;54.346;18.562;2023-07-29T09:31:25;3.70;;;2.30;;
57023;SDS011;42916;54.346;18.562;2023-07-29T09:33:56;2.30;;;1.80;;
57023;SDS011;42916;54.346;18.562;2023-07-29T09:36:27;4.20;;;1.90;;
57023;SDS011;42916;54.346;18.562;2023-07-29T09:38:56;3.40;;;2.60;;
57023;SDS011;42916;54.346;18.562;2023-07-29T09:41:24;2.60;;;1.80;;
57023;SDS011;42916;54.346;18.562;2023-07-29T09:43:58;3.60;;;1.90;;
57023;SDS011;42916;54.346;18.562;2023-07-29T09:46:26;2.80;;;2.00;;
57023;SDS011;42916;54.346;18.562;2023-07-29T09:48:58;2.50;;;2.00;;
57023;SDS011;42916;54.346;18.562;2023-07-29T09:51:25;3.40;;;2.10;;
57023;SDS011;42916;54.346;18.562;2023-07-29T09:53:51;2.60;;;2.00;;
57023;SDS011;42916;54.346;18.562;2023-07-29T09:56:17;2.10;;;1.90;;
57023;SDS011;42916;54.346;18.562;2023-07-29T09:58:49;2.80;;;1.90;;
57023;SDS011;42916;54.346;18.562;2023-07-29T10:01:15;4.10;;;2.10;;
57023;SDS011;42916;54.346;18.562;2023-07-29T10:03:42;2.20;;;1.90;;
57023;SDS011;42916;54.346;18.562;2023-07-29T10:06:09;2.20;;;2.00;;
57023;SDS011;42916;54.346;18.562;2023-07-29T10:08:37;2.90;;;1.90;;
57023;SDS011;42916;54.346;18.562;2023-07-29T10:11:05;2.20;;;2.00;;
57023;SDS011;42916;54.346;18.562;2023-07-29T10:13:33;2.70;;;1.90;;
57023;SDS011;42916;54.346;18.562;2023-07-29T10:15:59;2.40;;;2.00;;
57023;SDS011;42916;54.346;18.562;2023-07-29T10:18:29;3.00;;;2.00;;
57023;SDS011;42916;54.346;18.562;2023-07-29T10:20:57;4.30;;;2.10;;
57023;SDS011;42916;54.346;18.562;2023-07-29T10:23:26;2.30;;;2.00;;
57023;SDS011;42916;54.346;18.562;2023-07-29T10:26:02;2.70;;;2.30;;
57023;SDS011;42916;54.346;18.562;2023-07-29T10:28:30;3.10;;;2.20;;
57023;SDS011;42916;54.346;18.562;2023-07-29T10:30:58;2.20;;;2.00;;
57023;SDS011;42916;54.346;18.562;2023-07-29T10:33:25;3.50;;;2.30;;
57023;SDS011;42916;54.346;18.562;2023-07-29T10:35:52;3.30;;;2.20;;
57023;SDS011;42916;54.346;18.562;2023-07-29T10:38:21;2.10;;;1.90;;
57023;SDS011;42916;54.346;18.562;2023-07-29T10:48:52;3.70;;;2.10;;
57023;SDS011;42916;54.346;18.562;2023-07-29T10:54:01;3.20;;;2.40;;
57023;SDS011;42916;54.346;18.562;2023-07-29T10:56:35;2.50;;;2.20;;
57023;SDS011;42916;54.346;18.562;2023-07-29T11:01:37;2.40;;;2.10;;
57023;SDS011;42916;54.346;18.562;2023-07-29T11:15:03;2.70;;;2.40;;
57023;SDS011;42916;54.346;18.562;2023-07-29T11:17:41;4.10;;;2.60;;
57023;SDS011;42916;54.346;18.562;2023-07-29T11:20:07;3.10;;;2.20;;
57023;SDS011;42916;54.346;18.562;2023-07-29T11:22:34;2.50;;;2.30;;
57023;SDS011;42916;54.346;18.562;2023-07-29T11:25:01;2.50;;;2.00;;
57023;SDS011;42916;54.346;18.562;2023-07-29T11:27:27;4.10;;;2.40;;
57023;SDS011;42916;54.346;18.562;2023-07-29T11:29:57;2.90;;;2.10;;
57023;SDS011;42916;54.346;18.562;2023-07-29T11:32:24;3.00;;;2.40;;
57023;SDS011;42916;54.346;18.562;2023-07-29T11:34:51;2.70;;;1.90;;
57023;SDS011;42916;54.346;18.562;2023-07-29T11:37:17;3.40;;;2.20;;
57023;SDS011;42916;54.346;18.562;2023-07-29T11:39:44;2.80;;;2.30;;
57023;SDS011;42916;54.346;18.562;2023-07-29T11:42:14;2.30;;;2.10;;
57023;SDS011;42916;54.346;18.562;2023-07-29T11:44:40;3.90;;;2.30;;
57023;SDS011;42916;54.346;18.562;2023-07-29T11:47:10;2.70;;;2.10;;
57023;SDS011;42916;54.346;18.562;2023-07-29T11:49:38;2.30;;;1.90;;
57023;SDS011;42916;54.346;18.562;2023-07-29T11:52:06;2.90;;;1.90;;
57023;SDS011;42916;54.346;18.562;2023-07-29T11:54:36;4.30;;;2.10;;
57023;SDS011;42916;54.346;18.562;2023-07-29T11:57:05;3.40;;;2.10;;
57023;SDS011;42916;54.346;18.562;2023-07-29T11:59:33;2.30;;;2.10;;
57023;SDS011;42916;54.346;18.562;2023-07-29T12:02:01;2.30;;;2.00;;
57023;SDS011;42916;54.346;18.562;2023-07-29T12:04:31;2.20;;;2.00;;
57023;SDS011;42916;54.346;18.562;2023-07-29T12:09:25;2.50;;;2.30;;
57023;SDS011;42916;54.346;18.562;2023-07-29T12:11:53;2.70;;;1.80;;
57023;SDS011;42916;54.346;18.562;2023-07-29T12:14:19;2.90;;;2.20;;
57023;SDS011;42916;54.346;18.562;2023-07-29T12:16:47;2.70;;;2.20;;
57023;SDS011;42916;54.346;18.562;2023-07-29T12:19:15;1.90;;;1.70;;
57023;SDS011;42916;54.346;18.562;2023-07-29T12:21:42;3.10;;;2.00;;
57023;SDS011;42916;54.346;18.562;2023-07-29T12:24:09;2.60;;;2.30;;
57023;SDS011;42916;54.346;18.562;2023-07-29T12:26:37;2.60;;;2.00;;
57023;SDS011;42916;54.346;18.562;2023-07-29T12:29:13;2.40;;;1.90;;
57023;SDS011;42916;54.346;18.562;2023-07-29T12:31:40;3.40;;;2.40;;
57023;SDS011;42916;54.346;18.562;2023-07-29T12:34:07;2.40;;;2.10;;
57023;SDS011;42916;54.346;18.562;2023-07-29T12:36:44;3.50;;;2.40;;
57023;SDS011;42916;54.346;18.562;2023-07-29T12:39:21;2.60;;;2.20;;
57023;SDS011;42916;54.346;18.562;2023-07-29T12:41:50;2.90;;;1.80;;
57023;SDS011;42916;54.346;18.562;2023-07-29T12:44:17;5.70;;;1.90;;
57023;SDS011;42916;54.346;18.562;2023-07-29T12:46:44;1.70;;;1.60;;
57023;SDS011;42916;54.346;18.562;2023-07-29T12:49:10;3.10;;;2.10;;
57023;SDS011;42916;54.346;18.562;2023-07-29T12:51:36;2.90;;;2.10;;
57023;SDS011;42916;54.346;18.562;2023-07-29T12:54:03;3.00;;;1.90;;
57023;SDS011;42916;54.346;18.562;2023-07-29T12:56:30;2.30;;;2.10;;
57023;SDS011;42916;54.346;18.562;2023-07-29T12:58:58;2.30;;;2.00;;
57023;SDS011;42916;54.346;18.562;2023-07-29T13:01:25;2.40;;;2.10;;
57023;SDS011;42916;54.346;18.562;2023-07-29T13:03:51;2.70;;;2.40;;
57023;SDS011;42916;54.346;18.562;2023-07-29T13:06:17;2.90;;;2.60;;
57023;SDS011;42916;54.346;18.562;2023-07-29T13:08:44;4.90;;;2.70;;
57023;SDS011;42916;54.346;18.562;2023-07-29T13:11:10;3.80;;;2.10;;
57023;SDS011;42916;54.346;18.562;2023-07-29T13:13:37;4.00;;;2.10;;
57023;SDS011;42916;54.346;18.562;2023-07-29T13:16:03;2.90;;;2.20;;
57023;SDS011;42916;54.346;18.562;2023-07-29T13:18:31;3.80;;;2.80;;
57023;SDS011;42916;54.346;18.562;2023-07-29T13:20:58;4.70;;;2.40;;
57023;SDS011;42916;54.346;18.562;2023-07-29T13:23:26;4.00;;;2.90;;
57023;SDS011;42916;54.346;18.562;2023-07-29T13:25:52;2.70;;;2.30;;
57023;SDS011;42916;54.346;18.562;2023-07-29T13:28:18;2.60;;;2.10;;
57023;SDS011;42916;54.346;18.562;2023-07-29T13:30:45;2.60;;;2.40;;
57023;SDS011;42916;54.346;18.562;2023-07-29T13:33:11;3.60;;;2.00;;
57023;SDS011;42916;54.346;18.562;2023-07-29T13:35:37;3.60;;;2.00;;
57023;SDS011;42916;54.346;18.562;2023-07-29T13:38:03;2.90;;;2.20;;
57023;SDS011;42916;54.346;18.562;2023-07-29T13:40:29;2.50;;;2.10;;
57023;SDS011;42916;54.346;18.562;2023-07-29T13:42:55;2.90;;;2.00;;
57023;SDS011;42916;54.346;18.562;2023-07-29T13:45:21;2.60;;;2.00;;
57023;SDS011;42916;54.346;18.562;2023-07-29T13:47:48;3.90;;;2.00;;
57023;SDS011;42916;54.346;18.562;2023-07-29T13:50:16;3.90;;;2.00;;
57023;SDS011;42916;54.346;18.562;2023-07-29T13:52:43;2.40;;;2.10;;
57023;SDS011;42916;54.346;18.562;2023-07-29T13:55:10;2.10;;;1.90;;
57023;SDS011;42916;54.346;18.562;2023-07-29T13:57:37;3.00;;;1.80;;
57023;SDS011;42916;54.346;18.562;2023-07-29T14:00:05;2.20;;;1.90;;
57023;SDS011;42916;54.346;18.562;2023-07-29T14:02:41;2.50;;;1.90;;
57023;SDS011;42916;54.346;18.562;2023-07-29T14:05:08;2.20;;;2.00;;
57023;SDS011;42916;54.346;18.562;2023-07-29T14:07:34;2.00;;;1.80;;
57023;SDS011;42916;54.346;18.562;2023-07-29T14:10:00;3.00;;;2.40;;
57023;SDS011;42916;54.346;18.562;2023-07-29T14:12:26;3.00;;;2.00;;
57023;SDS011;42916;54.346;18.562;2023-07-29T14:14:52;1.80;;;1.70;;
57023;SDS011;42916;54.346;18.562;2023-07-29T14:17:18;1.80;;;1.70;;
57023;SDS011;42916;54.346;18.562;2023-07-29T14:19:44;2.00;;;1.70;;
57023;SDS011;42916;54.346;18.562;2023-07-29T14:22:11;1.80;;;1.70;;
57023;SDS011;42916;54.346;18.562;2023-07-29T14:24:37;3.00;;;1.70;;
57023;SDS011;42916;54.346;18.562;2023-07-29T14:27:03;2.00;;;1.90;;
57023;SDS011;42916;54.346;18.562;2023-07-29T14:29:29;3.10;;;1.90;;
57023;SDS011;42916;54.346;18.562;2023-07-29T14:31:55;2.20;;;1.80;;
57023;SDS011;42916;54.346;18.562;2023-07-29T14:34:21;2.10;;;1.80;;
57023;SDS011;42916;54.346;18.562;2023-07-29T14:36:47;4.00;;;2.50;;
57023;SDS011;42916;54.346;18.562;2023-07-29T14:39:13;2.30;;;1.80;;
57023;SDS011;42916;54.346;18.562;2023-07-29T14:41:39;1.80;;;1.60;;
57023;SDS011;42916;54.346;18.562;2023-07-29T14:44:05;3.10;;;1.80;;
57023;SDS011;42916;54.346;18.562;2023-07-29T14:46:32;3.20;;;1.70;;
57023;SDS011;42916;54.346;18.562;2023-07-29T14:48:58;2.50;;;1.70;;
57023;SDS011;42916;54.346;18.562;2023-07-29T14:51:24;1.60;;;1.50;;
57023;SDS011;42916;54.346;18.562;2023-07-29T14:53:50;1.60;;;1.50;;
57023;SDS011;42916;54.346;18.562;2023-07-29T14:56:16;1.70;;;1.60;;
57023;SDS011;42916;54.346;18.562;2023-07-29T14:58:44;3.50;;;1.50;;
57023;SDS011;42916;54.346;18.562;2023-07-29T15:01:10;2.30;;;1.60;;
57023;SDS011;42916;54.346;18.562;2023-07-29T15:03:36;1.90;;;1.60;;